sensor_id;sensor_type;location;lat;lon;timestamp;P1;durP1;ratioP1;P2;durP2;ratioP2
43114;SDS011;28727;50.068;14.452;2023-04-06T00:01:13;21.38;;;11.13;;
43114;SDS011;28727;50.068;14.452;2023-04-06T00:03:45;23.52;;;11.77;;
43114;SDS011;28727;50.068;14.452;2023-04-06T00:06:17;22.85;;;11.52;;
43114;SDS011;28727;50.068;14.452;2023-04-06T00:08:48;23.40;;;12.35;;
43114;SDS011;28727;50.068;14.452;2023-04-06T00:11:20;24.95;;;12.38;;
43114;SDS011;28727;50.068;14.452;2023-04-06T00:13:52;26.75;;;13.13;;
43114;SDS011;28727;50.068;14.452;2023-04-06T00:16:29;25.67;;;13.52;;
43114;SDS011;28727;50.068;14.452;2023-04-06T00:19:01;27.70;;;13.95;;
43114;SDS011;28727;50.068;14.452;2023-04-06T00:21:33;22.00;;;12.75;;
43114;SDS011;28727;50.068;14.452;2023-04-06T00:24:05;26.52;;;13.25;;
43114;SDS011;28727;50.068;14.452;2023-04-06T00:26:37;26.50;;;13.45;;
43114;SDS011;28727;50.068;14.452;2023-04-06T00:29:09;22.77;;;13.32;;
43114;SDS011;28727;50.068;14.452;2023-04-06T00:31:41;22.80;;;13.45;;
43114;SDS011;28727;50.068;14.452;2023-04-06T00:36:47;27.02;;;15.07;;
43114;SDS011;28727;50.068;14.452;2023-04-06T00:39:19;28.65;;;14.68;;
43114;SDS011;28727;50.068;14.452;2023-04-06T00:41:54;23.20;;;13.65;;
43114;SDS011;28727;50.068;14.452;2023-04-06T00:44:27;24.17;;;14.27;;
43114;SDS011;28727;50.068;14.452;2023-04-06T00:46:59;30.30;;;15.98;;
43114;SDS011;28727;50.068;14.452;2023-04-06T00:49:32;27.90;;;15.65;;
43114;SDS011;28727;50.068;14.452;2023-04-06T00:52:04;27.58;;;15.50;;
43114;SDS011;28727;50.068;14.452;2023-04-06T00:54:36;26.15;;;15.57;;
43114;SDS011;28727;50.068;14.452;2023-04-06T00:57:12;23.35;;;14.75;;
43114;SDS011;28727;50.068;14.452;2023-04-06T00:59:46;31.35;;;15.88;;
43114;SDS011;28727;50.068;14.452;2023-04-06T01:02:18;35.80;;;17.15;;
43114;SDS011;28727;50.068;14.452;2023-04-06T01:04:56;29.20;;;15.55;;
43114;SDS011;28727;50.068;14.452;2023-04-06T01:07:42;27.05;;;15.63;;
43114;SDS011;28727;50.068;14.452;2023-04-06T01:10:23;29.88;;;15.45;;
43114;SDS011;28727;50.068;14.452;2023-04-06T01:13:15;29.58;;;16.42;;
43114;SDS011;28727;50.068;14.452;2023-04-06T01:15:56;26.75;;;15.25;;
43114;SDS011;28727;50.068;14.452;2023-04-06T01:18:48;30.88;;;15.98;;
43114;SDS011;28727;50.068;14.452;2023-04-06T01:21:23;27.95;;;15.18;;
43114;SDS011;28727;50.068;14.452;2023-04-06T01:24:08;26.23;;;15.50;;
43114;SDS011;28727;50.068;14.452;2023-04-06T01:27:03;26.98;;;14.98;;
43114;SDS011;28727;50.068;14.452;2023-04-06T01:29:50;26.02;;;15.30;;
43114;SDS011;28727;50.068;14.452;2023-04-06T01:32:41;28.85;;;16.17;;
43114;SDS011;28727;50.068;14.452;2023-04-06T01:35:17;29.80;;;16.33;;
43114;SDS011;28727;50.068;14.452;2023-04-06T01:38:00;27.02;;;15.23;;
43114;SDS011;28727;50.068;14.452;2023-04-06T01:40:39;28.38;;;16.20;;
43114;SDS011;28727;50.068;14.452;2023-04-06T01:43:14;28.98;;;14.95;;
43114;SDS011;28727;50.068;14.452;2023-04-06T01:46:04;29.77;;;16.25;;
43114;SDS011;28727;50.068;14.452;2023-04-06T01:48:40;28.50;;;16.42;;
43114;SDS011;28727;50.068;14.452;2023-04-06T01:51:22;32.25;;;16.60;;
43114;SDS011;28727;50.068;14.452;2023-04-06T01:54:03;29.05;;;16.25;;
43114;SDS011;28727;50.068;14.452;2023-04-06T01:56:44;30.08;;;16.55;;
43114;SDS011;28727;50.068;14.452;2023-04-06T01:59:30;31.42;;;17.30;;
43114;SDS011;28727;50.068;14.452;2023-04-06T02:02:05;29.10;;;16.00;;
43114;SDS011;28727;50.068;14.452;2023-04-06T02:04:38;31.60;;;17.83;;
43114;SDS011;28727;50.068;14.452;2023-04-06T02:07:15;31.45;;;16.80;;
43114;SDS011;28727;50.068;14.452;2023-04-06T02:09:53;31.65;;;16.38;;
43114;SDS011;28727;50.068;14.452;2023-04-06T02:12:34;34.97;;;18.33;;
43114;SDS011;28727;50.068;14.452;2023-04-06T02:15:08;34.03;;;18.23;;
43114;SDS011;28727;50.068;14.452;2023-04-06T02:17:40;31.98;;;17.95;;
43114;SDS011;28727;50.068;14.452;2023-04-06T02:20:13;35.83;;;18.20;;
43114;SDS011;28727;50.068;14.452;2023-04-06T02:22:47;36.20;;;18.80;;
43114;SDS011;28727;50.068;14.452;2023-04-06T02:25:19;33.88;;;19.05;;
43114;SDS011;28727;50.068;14.452;2023-04-06T02:27:51;34.72;;;18.08;;
43114;SDS011;28727;50.068;14.452;2023-04-06T02:30:23;36.85;;;18.83;;
43114;SDS011;28727;50.068;14.452;2023-04-06T02:32:55;36.38;;;18.70;;
43114;SDS011;28727;50.068;14.452;2023-04-06T02:35:28;36.95;;;18.85;;
43114;SDS011;28727;50.068;14.452;2023-04-06T02:38:03;34.53;;;19.10;;
43114;SDS011;28727;50.068;14.452;2023-04-06T02:40:35;30.85;;;17.77;;
43114;SDS011;28727;50.068;14.452;2023-04-06T02:43:18;32.67;;;18.33;;
43114;SDS011;28727;50.068;14.452;2023-04-06T02:45:54;34.65;;;18.30;;
43114;SDS011;28727;50.068;14.452;2023-04-06T02:48:27;32.05;;;18.17;;
43114;SDS011;28727;50.068;14.452;2023-04-06T02:51:02;33.40;;;18.40;;
43114;SDS011;28727;50.068;14.452;2023-04-06T02:53:35;34.08;;;18.08;;
43114;SDS011;28727;50.068;14.452;2023-04-06T02:56:07;32.05;;;17.10;;
43114;SDS011;28727;50.068;14.452;2023-04-06T02:59:00;29.83;;;18.15;;
43114;SDS011;28727;50.068;14.452;2023-04-06T03:01:37;35.92;;;17.35;;
43114;SDS011;28727;50.068;14.452;2023-04-06T03:04:10;34.83;;;19.10;;
43114;SDS011;28727;50.068;14.452;2023-04-06T03:06:43;34.08;;;17.70;;
43114;SDS011;28727;50.068;14.452;2023-04-06T03:09:30;31.58;;;17.10;;
43114;SDS011;28727;50.068;14.452;2023-04-06T03:12:02;31.35;;;16.63;;
43114;SDS011;28727;50.068;14.452;2023-04-06T03:14:58;29.20;;;17.00;;
43114;SDS011;28727;50.068;14.452;2023-04-06T03:17:34;31.58;;;16.52;;
43114;SDS011;28727;50.068;14.452;2023-04-06T03:20:15;30.23;;;17.45;;
43114;SDS011;28727;50.068;14.452;2023-04-06T03:22:50;29.13;;;16.58;;
43114;SDS011;28727;50.068;14.452;2023-04-06T03:25:29;27.73;;;16.75;;
43114;SDS011;28727;50.068;14.452;2023-04-06T03:28:05;34.75;;;16.55;;
43114;SDS011;28727;50.068;14.452;2023-04-06T03:30:42;28.95;;;15.80;;
43114;SDS011;28727;50.068;14.452;2023-04-06T03:33:18;29.42;;;15.52;;
43114;SDS011;28727;50.068;14.452;2023-04-06T03:35:58;29.23;;;16.02;;
43114;SDS011;28727;50.068;14.452;2023-04-06T03:38:33;29.20;;;16.08;;
43114;SDS011;28727;50.068;14.452;2023-04-06T03:41:08;27.73;;;15.07;;
43114;SDS011;28727;50.068;14.452;2023-04-06T03:43:43;26.23;;;15.88;;
43114;SDS011;28727;50.068;14.452;2023-04-06T03:46:24;27.95;;;15.75;;
43114;SDS011;28727;50.068;14.452;2023-04-06T03:48:58;30.92;;;15.43;;
43114;SDS011;28727;50.068;14.452;2023-04-06T03:51:35;24.95;;;14.15;;
43114;SDS011;28727;50.068;14.452;2023-04-06T03:54:07;30.58;;;15.68;;
43114;SDS011;28727;50.068;14.452;2023-04-06T03:56:40;29.13;;;16.00;;
43114;SDS011;28727;50.068;14.452;2023-04-06T03:59:12;28.75;;;15.75;;
43114;SDS011;28727;50.068;14.452;2023-04-06T04:01:48;28.00;;;15.57;;
43114;SDS011;28727;50.068;14.452;2023-04-06T04:04:22;29.88;;;15.30;;
43114;SDS011;28727;50.068;14.452;2023-04-06T04:06:54;25.88;;;14.05;;
43114;SDS011;28727;50.068;14.452;2023-04-06T04:09:25;29.77;;;15.00;;
43114;SDS011;28727;50.068;14.452;2023-04-06T04:12:00;28.50;;;15.25;;
43114;SDS011;28727;50.068;14.452;2023-04-06T04:14:38;26.63;;;15.10;;
43114;SDS011;28727;50.068;14.452;2023-04-06T04:17:10;24.35;;;15.27;;
43114;SDS011;28727;50.068;14.452;2023-04-06T04:19:44;26.60;;;14.73;;
43114;SDS011;28727;50.068;14.452;2023-04-06T04:22:18;29.15;;;17.08;;
43114;SDS011;28727;50.068;14.452;2023-04-06T04:24:50;25.60;;;15.30;;
43114;SDS011;28727;50.068;14.452;2023-04-06T04:27:22;28.98;;;15.75;;
43114;SDS011;28727;50.068;14.452;2023-04-06T04:29:56;26.52;;;15.52;;
43114;SDS011;28727;50.068;14.452;2023-04-06T04:32:27;27.50;;;15.43;;
43114;SDS011;28727;50.068;14.452;2023-04-06T04:35:02;22.27;;;11.23;;
43114;SDS011;28727;50.068;14.452;2023-04-06T04:37:40;29.83;;;15.02;;
43114;SDS011;28727;50.068;14.452;2023-04-06T04:40:13;29.27;;;16.08;;
43114;SDS011;28727;50.068;14.452;2023-04-06T04:43:00;29.65;;;15.38;;
43114;SDS011;28727;50.068;14.452;2023-04-06T04:45:38;26.98;;;14.35;;
43114;SDS011;28727;50.068;14.452;2023-04-06T04:48:32;28.13;;;15.55;;
43114;SDS011;28727;50.068;14.452;2023-04-06T04:51:06;27.80;;;14.93;;
43114;SDS011;28727;50.068;14.452;2023-04-06T04:54:06;29.25;;;15.48;;
43114;SDS011;28727;50.068;14.452;2023-04-06T04:56:37;34.00;;;16.70;;
43114;SDS011;28727;50.068;14.452;2023-04-06T04:59:23;28.80;;;16.10;;
43114;SDS011;28727;50.068;14.452;2023-04-06T05:02:02;28.38;;;15.02;;
43114;SDS011;28727;50.068;14.452;2023-04-06T05:04:44;28.13;;;16.58;;
43114;SDS011;28727;50.068;14.452;2023-04-06T05:07:23;26.42;;;13.88;;
43114;SDS011;28727;50.068;14.452;2023-04-06T05:09:57;26.38;;;14.48;;
43114;SDS011;28727;50.068;14.452;2023-04-06T05:12:37;29.98;;;15.98;;
43114;SDS011;28727;50.068;14.452;2023-04-06T05:15:14;26.20;;;13.55;;
43114;SDS011;28727;50.068;14.452;2023-04-06T05:17:46;26.85;;;14.20;;
43114;SDS011;28727;50.068;14.452;2023-04-06T05:20:30;28.80;;;13.60;;
43114;SDS011;28727;50.068;14.452;2023-04-06T05:23:02;24.83;;;14.35;;
43114;SDS011;28727;50.068;14.452;2023-04-06T05:25:35;28.42;;;14.27;;
43114;SDS011;28727;50.068;14.452;2023-04-06T05:28:17;23.73;;;13.90;;
43114;SDS011;28727;50.068;14.452;2023-04-06T05:30:51;23.38;;;13.70;;
43114;SDS011;28727;50.068;14.452;2023-04-06T05:33:26;25.90;;;13.27;;
43114;SDS011;28727;50.068;14.452;2023-04-06T05:36:05;25.20;;;13.40;;
43114;SDS011;28727;50.068;14.452;2023-04-06T05:38:45;29.58;;;14.63;;
43114;SDS011;28727;50.068;14.452;2023-04-06T05:41:30;26.20;;;13.55;;
43114;SDS011;28727;50.068;14.452;2023-04-06T05:46:34;21.70;;;14.15;;
43114;SDS011;28727;50.068;14.452;2023-04-06T05:49:08;23.20;;;13.38;;
43114;SDS011;28727;50.068;14.452;2023-04-06T05:51:40;27.70;;;14.80;;
43114;SDS011;28727;50.068;14.452;2023-04-06T05:54:12;23.88;;;13.68;;
43114;SDS011;28727;50.068;14.452;2023-04-06T05:56:45;25.77;;;13.90;;
43114;SDS011;28727;50.068;14.452;2023-04-06T05:59:17;23.38;;;12.88;;
43114;SDS011;28727;50.068;14.452;2023-04-06T06:01:52;24.85;;;14.20;;
43114;SDS011;28727;50.068;14.452;2023-04-06T06:04:25;24.73;;;14.45;;
43114;SDS011;28727;50.068;14.452;2023-04-06T06:06:58;29.63;;;15.63;;
43114;SDS011;28727;50.068;14.452;2023-04-06T06:10:02;23.98;;;14.10;;
43114;SDS011;28727;50.068;14.452;2023-04-06T06:12:37;23.73;;;14.82;;
43114;SDS011;28727;50.068;14.452;2023-04-06T06:15:10;30.17;;;14.85;;
43114;SDS011;28727;50.068;14.452;2023-04-06T06:17:50;22.55;;;14.23;;
43114;SDS011;28727;50.068;14.452;2023-04-06T06:20:21;23.30;;;14.43;;
43114;SDS011;28727;50.068;14.452;2023-04-06T06:22:53;26.08;;;14.18;;
43114;SDS011;28727;50.068;14.452;2023-04-06T06:25:26;30.02;;;14.85;;
43114;SDS011;28727;50.068;14.452;2023-04-06T06:27:59;23.45;;;14.10;;
43114;SDS011;28727;50.068;14.452;2023-04-06T06:30:34;25.80;;;13.50;;
43114;SDS011;28727;50.068;14.452;2023-04-06T06:33:09;23.02;;;13.15;;
43114;SDS011;28727;50.068;14.452;2023-04-06T06:35:44;27.95;;;14.82;;
43114;SDS011;28727;50.068;14.452;2023-04-06T06:38:16;24.40;;;14.52;;
43114;SDS011;28727;50.068;14.452;2023-04-06T06:40:57;23.67;;;13.80;;
43114;SDS011;28727;50.068;14.452;2023-04-06T06:43:33;29.13;;;13.98;;
43114;SDS011;28727;50.068;14.452;2023-04-06T06:46:13;24.63;;;14.70;;
43114;SDS011;28727;50.068;14.452;2023-04-06T06:48:45;26.35;;;13.35;;
43114;SDS011;28727;50.068;14.452;2023-04-06T06:51:19;23.90;;;13.73;;
43114;SDS011;28727;50.068;14.452;2023-04-06T06:53:51;23.38;;;13.07;;
43114;SDS011;28727;50.068;14.452;2023-04-06T06:56:23;28.98;;;14.13;;
43114;SDS011;28727;50.068;14.452;2023-04-06T06:58:57;27.23;;;14.40;;
43114;SDS011;28727;50.068;14.452;2023-04-06T07:01:28;20.73;;;13.15;;
43114;SDS011;28727;50.068;14.452;2023-04-06T07:04:01;18.77;;;11.40;;
43114;SDS011;28727;50.068;14.452;2023-04-06T07:06:35;24.27;;;14.10;;
43114;SDS011;28727;50.068;14.452;2023-04-06T07:09:10;23.15;;;12.75;;
43114;SDS011;28727;50.068;14.452;2023-04-06T07:11:43;19.88;;;13.20;;
43114;SDS011;28727;50.068;14.452;2023-04-06T07:14:15;23.42;;;13.45;;
43114;SDS011;28727;50.068;14.452;2023-04-06T07:16:49;20.48;;;12.50;;
43114;SDS011;28727;50.068;14.452;2023-04-06T07:19:25;20.25;;;13.00;;
43114;SDS011;28727;50.068;14.452;2023-04-06T07:21:56;19.65;;;12.05;;
43114;SDS011;28727;50.068;14.452;2023-04-06T07:24:29;22.88;;;12.52;;
43114;SDS011;28727;50.068;14.452;2023-04-06T07:27:01;15.00;;;11.00;;
43114;SDS011;28727;50.068;14.452;2023-04-06T07:29:35;16.88;;;11.25;;
43114;SDS011;28727;50.068;14.452;2023-04-06T07:32:09;14.65;;;9.40;;
43114;SDS011;28727;50.068;14.452;2023-04-06T07:34:41;15.80;;;10.35;;
43114;SDS011;28727;50.068;14.452;2023-04-06T07:37:13;15.43;;;9.15;;
43114;SDS011;28727;50.068;14.452;2023-04-06T07:39:49;17.77;;;9.40;;
43114;SDS011;28727;50.068;14.452;2023-04-06T07:42:24;16.70;;;9.45;;
43114;SDS011;28727;50.068;14.452;2023-04-06T07:44:56;17.48;;;10.27;;
43114;SDS011;28727;50.068;14.452;2023-04-06T07:47:31;16.27;;;9.27;;
43114;SDS011;28727;50.068;14.452;2023-04-06T07:50:04;14.13;;;9.15;;
43114;SDS011;28727;50.068;14.452;2023-04-06T07:52:36;13.70;;;9.38;;
43114;SDS011;28727;50.068;14.452;2023-04-06T07:55:09;13.38;;;7.93;;
43114;SDS011;28727;50.068;14.452;2023-04-06T07:57:41;14.70;;;8.15;;
43114;SDS011;28727;50.068;14.452;2023-04-06T08:00:19;15.13;;;8.40;;
43114;SDS011;28727;50.068;14.452;2023-04-06T08:02:51;13.57;;;8.32;;
43114;SDS011;28727;50.068;14.452;2023-04-06T08:05:26;13.45;;;7.90;;
43114;SDS011;28727;50.068;14.452;2023-04-06T08:08:01;11.48;;;7.13;;
43114;SDS011;28727;50.068;14.452;2023-04-06T08:10:33;12.20;;;7.47;;
43114;SDS011;28727;50.068;14.452;2023-04-06T08:13:07;9.40;;;7.07;;
43114;SDS011;28727;50.068;14.452;2023-04-06T08:15:39;11.40;;;7.63;;
43114;SDS011;28727;50.068;14.452;2023-04-06T08:18:11;11.98;;;8.55;;
43114;SDS011;28727;50.068;14.452;2023-04-06T08:20:46;13.65;;;8.40;;
43114;SDS011;28727;50.068;14.452;2023-04-06T08:23:20;11.65;;;7.78;;
43114;SDS011;28727;50.068;14.452;2023-04-06T08:25:51;12.07;;;7.70;;
43114;SDS011;28727;50.068;14.452;2023-04-06T08:28:25;12.25;;;7.72;;
43114;SDS011;28727;50.068;14.452;2023-04-06T08:30:58;11.30;;;7.50;;
43114;SDS011;28727;50.068;14.452;2023-04-06T08:33:30;12.32;;;8.43;;
43114;SDS011;28727;50.068;14.452;2023-04-06T08:36:07;11.07;;;7.95;;
43114;SDS011;28727;50.068;14.452;2023-04-06T08:38:51;10.30;;;7.60;;
43114;SDS011;28727;50.068;14.452;2023-04-06T08:41:23;17.65;;;9.77;;
43114;SDS011;28727;50.068;14.452;2023-04-06T08:43:59;17.23;;;9.00;;
43114;SDS011;28727;50.068;14.452;2023-04-06T08:46:32;12.35;;;8.65;;
43114;SDS011;28727;50.068;14.452;2023-04-06T08:49:04;14.10;;;8.80;;
43114;SDS011;28727;50.068;14.452;2023-04-06T08:51:39;13.05;;;8.30;;
43114;SDS011;28727;50.068;14.452;2023-04-06T08:54:18;14.25;;;9.63;;
43114;SDS011;28727;50.068;14.452;2023-04-06T08:56:50;13.18;;;8.30;;
43114;SDS011;28727;50.068;14.452;2023-04-06T08:59:24;11.60;;;8.05;;
43114;SDS011;28727;50.068;14.452;2023-04-06T09:01:59;13.05;;;7.75;;
43114;SDS011;28727;50.068;14.452;2023-04-06T09:04:35;12.20;;;8.27;;
43114;SDS011;28727;50.068;14.452;2023-04-06T09:07:09;12.30;;;8.07;;
43114;SDS011;28727;50.068;14.452;2023-04-06T09:09:48;16.85;;;8.18;;
43114;SDS011;28727;50.068;14.452;2023-04-06T09:15:00;12.23;;;7.30;;
43114;SDS011;28727;50.068;14.452;2023-04-06T09:17:35;9.98;;;6.55;;
43114;SDS011;28727;50.068;14.452;2023-04-06T09:20:08;9.52;;;6.70;;
43114;SDS011;28727;50.068;14.452;2023-04-06T09:22:40;10.00;;;6.90;;
43114;SDS011;28727;50.068;14.452;2023-04-06T09:25:19;7.55;;;5.90;;
43114;SDS011;28727;50.068;14.452;2023-04-06T09:28:02;8.90;;;5.25;;
43114;SDS011;28727;50.068;14.452;2023-04-06T09:30:35;10.07;;;6.70;;
43114;SDS011;28727;50.068;14.452;2023-04-06T09:33:07;9.77;;;7.00;;
43114;SDS011;28727;50.068;14.452;2023-04-06T09:35:39;8.68;;;6.43;;
43114;SDS011;28727;50.068;14.452;2023-04-06T09:38:20;12.40;;;7.07;;
43114;SDS011;28727;50.068;14.452;2023-04-06T09:40:52;11.27;;;6.32;;
43114;SDS011;28727;50.068;14.452;2023-04-06T09:43:32;8.88;;;6.15;;
43114;SDS011;28727;50.068;14.452;2023-04-06T09:46:03;14.15;;;9.07;;
43114;SDS011;28727;50.068;14.452;2023-04-06T09:48:36;10.40;;;7.32;;
43114;SDS011;28727;50.068;14.452;2023-04-06T09:51:09;28.13;;;7.63;;
43114;SDS011;28727;50.068;14.452;2023-04-06T09:53:46;11.10;;;6.70;;
43114;SDS011;28727;50.068;14.452;2023-04-06T09:56:23;8.77;;;5.97;;
43114;SDS011;28727;50.068;14.452;2023-04-06T09:59:08;11.15;;;6.10;;
43114;SDS011;28727;50.068;14.452;2023-04-06T10:01:44;11.40;;;5.72;;
43114;SDS011;28727;50.068;14.452;2023-04-06T10:07:04;7.32;;;4.70;;
43114;SDS011;28727;50.068;14.452;2023-04-06T10:09:47;7.55;;;5.45;;
43114;SDS011;28727;50.068;14.452;2023-04-06T10:12:19;10.38;;;5.63;;
43114;SDS011;28727;50.068;14.452;2023-04-06T10:14:56;8.93;;;5.43;;
43114;SDS011;28727;50.068;14.452;2023-04-06T10:17:27;14.40;;;5.03;;
43114;SDS011;28727;50.068;14.452;2023-04-06T10:20:02;10.20;;;5.38;;
43114;SDS011;28727;50.068;14.452;2023-04-06T10:25:53;5.97;;;4.45;;
43114;SDS011;28727;50.068;14.452;2023-04-06T10:28:30;4.57;;;3.38;;
43114;SDS011;28727;50.068;14.452;2023-04-06T10:31:10;7.13;;;4.57;;
43114;SDS011;28727;50.068;14.452;2023-04-06T10:33:42;9.18;;;4.80;;
43114;SDS011;28727;50.068;14.452;2023-04-06T10:36:26;8.38;;;4.32;;
43114;SDS011;28727;50.068;14.452;2023-04-06T10:39:05;6.32;;;4.50;;
43114;SDS011;28727;50.068;14.452;2023-04-06T10:41:41;8.27;;;4.20;;
43114;SDS011;28727;50.068;14.452;2023-04-06T10:44:25;6.90;;;4.78;;
43114;SDS011;28727;50.068;14.452;2023-04-06T10:46:57;8.63;;;4.70;;
43114;SDS011;28727;50.068;14.452;2023-04-06T10:49:32;8.40;;;4.82;;
43114;SDS011;28727;50.068;14.452;2023-04-06T10:52:04;8.38;;;4.20;;
43114;SDS011;28727;50.068;14.452;2023-04-06T10:54:41;5.78;;;4.35;;
43114;SDS011;28727;50.068;14.452;2023-04-06T10:57:15;6.75;;;4.32;;
43114;SDS011;28727;50.068;14.452;2023-04-06T10:59:47;6.20;;;4.53;;
43114;SDS011;28727;50.068;14.452;2023-04-06T11:02:19;7.45;;;4.57;;
43114;SDS011;28727;50.068;14.452;2023-04-06T11:04:56;6.38;;;4.75;;
43114;SDS011;28727;50.068;14.452;2023-04-06T11:07:28;7.32;;;4.60;;
43114;SDS011;28727;50.068;14.452;2023-04-06T11:10:01;6.10;;;4.45;;
43114;SDS011;28727;50.068;14.452;2023-04-06T11:12:36;9.45;;;4.47;;
43114;SDS011;28727;50.068;14.452;2023-04-06T11:15:09;12.63;;;5.15;;
43114;SDS011;28727;50.068;14.452;2023-04-06T11:17:41;9.85;;;5.10;;
43114;SDS011;28727;50.068;14.452;2023-04-06T11:20:13;6.65;;;4.68;;
43114;SDS011;28727;50.068;14.452;2023-04-06T11:22:49;5.30;;;4.05;;
43114;SDS011;28727;50.068;14.452;2023-04-06T11:25:23;6.28;;;4.45;;
43114;SDS011;28727;50.068;14.452;2023-04-06T11:28:02;6.25;;;4.55;;
43114;SDS011;28727;50.068;14.452;2023-04-06T11:30:34;8.52;;;5.13;;
43114;SDS011;28727;50.068;14.452;2023-04-06T11:33:06;4.85;;;3.80;;
43114;SDS011;28727;50.068;14.452;2023-04-06T11:35:38;7.43;;;3.85;;
43114;SDS011;28727;50.068;14.452;2023-04-06T11:38:11;7.10;;;4.38;;
43114;SDS011;28727;50.068;14.452;2023-04-06T11:43:17;5.63;;;3.72;;
43114;SDS011;28727;50.068;14.452;2023-04-06T11:45:49;5.50;;;4.05;;
43114;SDS011;28727;50.068;14.452;2023-04-06T11:48:23;6.32;;;3.90;;
43114;SDS011;28727;50.068;14.452;2023-04-06T11:50:58;7.47;;;4.10;;
43114;SDS011;28727;50.068;14.452;2023-04-06T11:53:33;16.23;;;4.25;;
43114;SDS011;28727;50.068;14.452;2023-04-06T11:56:26;8.38;;;4.13;;
43114;SDS011;28727;50.068;14.452;2023-04-06T11:59:04;6.63;;;4.28;;
43114;SDS011;28727;50.068;14.452;2023-04-06T12:01:44;6.32;;;3.60;;
43114;SDS011;28727;50.068;14.452;2023-04-06T12:04:16;7.85;;;3.83;;
43114;SDS011;28727;50.068;14.452;2023-04-06T12:06:49;5.35;;;3.80;;
43114;SDS011;28727;50.068;14.452;2023-04-06T12:09:20;6.93;;;3.65;;
43114;SDS011;28727;50.068;14.452;2023-04-06T12:11:52;5.60;;;3.40;;
43114;SDS011;28727;50.068;14.452;2023-04-06T12:14:24;7.13;;;3.95;;
43114;SDS011;28727;50.068;14.452;2023-04-06T12:16:56;6.70;;;4.10;;
43114;SDS011;28727;50.068;14.452;2023-04-06T12:22:13;6.22;;;4.18;;
43114;SDS011;28727;50.068;14.452;2023-04-06T12:24:45;6.10;;;3.72;;
43114;SDS011;28727;50.068;14.452;2023-04-06T12:27:18;5.68;;;3.78;;
43114;SDS011;28727;50.068;14.452;2023-04-06T12:29:51;6.63;;;4.05;;
43114;SDS011;28727;50.068;14.452;2023-04-06T12:32:22;4.97;;;3.92;;
43114;SDS011;28727;50.068;14.452;2023-04-06T12:34:54;10.25;;;4.55;;
43114;SDS011;28727;50.068;14.452;2023-04-06T12:37:29;7.53;;;4.90;;
43114;SDS011;28727;50.068;14.452;2023-04-06T12:40:01;22.75;;;17.75;;
43114;SDS011;28727;50.068;14.452;2023-04-06T12:42:34;9.82;;;4.57;;
43114;SDS011;28727;50.068;14.452;2023-04-06T12:45:06;5.97;;;4.60;;
43114;SDS011;28727;50.068;14.452;2023-04-06T12:47:39;6.15;;;4.30;;
43114;SDS011;28727;50.068;14.452;2023-04-06T12:50:11;6.40;;;3.95;;
43114;SDS011;28727;50.068;14.452;2023-04-06T12:52:42;6.20;;;3.55;;
43114;SDS011;28727;50.068;14.452;2023-04-06T12:55:18;6.65;;;4.20;;
43114;SDS011;28727;50.068;14.452;2023-04-06T12:57:51;5.95;;;4.40;;
43114;SDS011;28727;50.068;14.452;2023-04-06T13:00:23;7.10;;;3.67;;
43114;SDS011;28727;50.068;14.452;2023-04-06T13:02:55;5.60;;;4.32;;
43114;SDS011;28727;50.068;14.452;2023-04-06T13:05:27;5.32;;;4.28;;
43114;SDS011;28727;50.068;14.452;2023-04-06T13:08:02;6.20;;;4.35;;
43114;SDS011;28727;50.068;14.452;2023-04-06T13:10:33;8.98;;;4.45;;
43114;SDS011;28727;50.068;14.452;2023-04-06T13:13:06;7.35;;;4.10;;
43114;SDS011;28727;50.068;14.452;2023-04-06T13:15:38;5.60;;;4.15;;
43114;SDS011;28727;50.068;14.452;2023-04-06T13:18:10;6.57;;;4.45;;
43114;SDS011;28727;50.068;14.452;2023-04-06T13:20:43;5.38;;;3.92;;
43114;SDS011;28727;50.068;14.452;2023-04-06T13:23:14;6.25;;;4.28;;
43114;SDS011;28727;50.068;14.452;2023-04-06T13:25:47;7.78;;;5.18;;
43114;SDS011;28727;50.068;14.452;2023-04-06T13:28:19;5.88;;;4.55;;
43114;SDS011;28727;50.068;14.452;2023-04-06T13:30:51;5.57;;;4.30;;
43114;SDS011;28727;50.068;14.452;2023-04-06T13:33:23;6.80;;;4.50;;
43114;SDS011;28727;50.068;14.452;2023-04-06T13:35:55;6.15;;;4.75;;
43114;SDS011;28727;50.068;14.452;2023-04-06T13:38:27;8.70;;;4.97;;
43114;SDS011;28727;50.068;14.452;2023-04-06T13:40:59;7.20;;;4.55;;
43114;SDS011;28727;50.068;14.452;2023-04-06T13:43:31;7.60;;;5.07;;
43114;SDS011;28727;50.068;14.452;2023-04-06T13:46:03;6.30;;;4.97;;
43114;SDS011;28727;50.068;14.452;2023-04-06T13:48:35;6.82;;;5.03;;
43114;SDS011;28727;50.068;14.452;2023-04-06T13:51:10;5.90;;;4.45;;
43114;SDS011;28727;50.068;14.452;2023-04-06T13:53:45;6.20;;;4.78;;
43114;SDS011;28727;50.068;14.452;2023-04-06T13:56:40;8.05;;;5.05;;
43114;SDS011;28727;50.068;14.452;2023-04-06T13:59:12;7.78;;;4.88;;
43114;SDS011;28727;50.068;14.452;2023-04-06T14:01:43;7.63;;;5.40;;
43114;SDS011;28727;50.068;14.452;2023-04-06T14:04:16;7.47;;;5.03;;
43114;SDS011;28727;50.068;14.452;2023-04-06T14:06:48;8.77;;;5.47;;
43114;SDS011;28727;50.068;14.452;2023-04-06T14:09:20;7.22;;;5.03;;
43114;SDS011;28727;50.068;14.452;2023-04-06T14:11:52;6.78;;;5.18;;
43114;SDS011;28727;50.068;14.452;2023-04-06T14:14:24;7.93;;;5.22;;
43114;SDS011;28727;50.068;14.452;2023-04-06T14:16:56;8.32;;;5.43;;
43114;SDS011;28727;50.068;14.452;2023-04-06T14:19:28;7.78;;;4.90;;
43114;SDS011;28727;50.068;14.452;2023-04-06T14:22:00;7.90;;;5.35;;
43114;SDS011;28727;50.068;14.452;2023-04-06T14:24:32;8.13;;;5.05;;
43114;SDS011;28727;50.068;14.452;2023-04-06T14:27:11;7.55;;;4.82;;
43114;SDS011;28727;50.068;14.452;2023-04-06T14:32:14;6.40;;;5.47;;
43114;SDS011;28727;50.068;14.452;2023-04-06T14:34:46;8.02;;;5.35;;
43114;SDS011;28727;50.068;14.452;2023-04-06T14:37:18;5.90;;;4.60;;
43114;SDS011;28727;50.068;14.452;2023-04-06T14:39:51;6.95;;;4.60;;
43114;SDS011;28727;50.068;14.452;2023-04-06T14:42:24;8.13;;;5.30;;
43114;SDS011;28727;50.068;14.452;2023-04-06T14:44:56;7.28;;;4.68;;
43114;SDS011;28727;50.068;14.452;2023-04-06T14:47:31;6.45;;;4.30;;
43114;SDS011;28727;50.068;14.452;2023-04-06T14:50:03;6.82;;;5.20;;
43114;SDS011;28727;50.068;14.452;2023-04-06T14:52:36;12.43;;;5.57;;
43114;SDS011;28727;50.068;14.452;2023-04-06T14:55:08;7.50;;;4.38;;
43114;SDS011;28727;50.068;14.452;2023-04-06T14:57:40;7.03;;;4.97;;
43114;SDS011;28727;50.068;14.452;2023-04-06T15:00:12;9.45;;;4.82;;
43114;SDS011;28727;50.068;14.452;2023-04-06T15:02:47;6.40;;;4.82;;
43114;SDS011;28727;50.068;14.452;2023-04-06T15:05:19;7.88;;;4.70;;
43114;SDS011;28727;50.068;14.452;2023-04-06T15:07:51;6.65;;;4.47;;
43114;SDS011;28727;50.068;14.452;2023-04-06T15:10:26;6.88;;;5.05;;
43114;SDS011;28727;50.068;14.452;2023-04-06T15:12:58;7.40;;;4.50;;
43114;SDS011;28727;50.068;14.452;2023-04-06T15:15:40;6.70;;;4.80;;
43114;SDS011;28727;50.068;14.452;2023-04-06T15:18:13;7.63;;;4.82;;
43114;SDS011;28727;50.068;14.452;2023-04-06T15:20:44;7.07;;;4.70;;
43114;SDS011;28727;50.068;14.452;2023-04-06T15:23:16;7.05;;;4.30;;
43114;SDS011;28727;50.068;14.452;2023-04-06T15:25:49;6.72;;;4.70;;